createdAt,value
2023-03-29T00:00:55.596Z,88.59
2023-03-29T00:01:55.601Z,88.48
2023-03-29T00:02:55.654Z,89.52
2023-03-29T00:03:55.660Z,90.35
2023-03-29T00:04:55.522Z,90.19
2023-03-29T00:05:55.515Z,90.39
2023-03-29T00:06:55.512Z,90.39
2023-03-29T00:07:55.521Z,91.02
2023-03-29T00:08:55.492Z,90.70
2023-03-29T00:09:55.470Z,91.12
2023-03-29T00:10:55.468Z,91.33
2023-03-29T00:11:55.490Z,91.22
2023-03-29T00:12:55.453Z,91.53
2023-03-29T00:13:55.445Z,90.91
2023-03-29T00:14:55.427Z,91.95
2023-03-29T00:15:55.406Z,91.53
2023-03-29T00:16:55.723Z,91.33
2023-03-29T00:17:55.433Z,91.95
2023-03-29T00:18:55.388Z,91.95
2023-03-29T00:19:55.365Z,91.74
2023-03-29T00:20:55.361Z,92.78
2023-03-29T00:21:55.362Z,92.16
2023-03-29T00:22:55.479Z,92.47
2023-03-29T00:23:55.348Z,91.95
2023-03-29T00:24:55.318Z,92.68
2023-03-29T00:25:55.319Z,92.93
2023-03-29T00:26:55.343Z,93.10
2023-03-29T00:27:55.285Z,92.57
2023-03-29T00:28:55.289Z,93.51
2023-03-29T00:29:55.266Z,93.45
2023-03-29T00:30:55.314Z,93.45
2023-03-29T00:31:55.779Z,93.55
2023-03-29T00:32:55.266Z,93.14
2023-03-29T00:33:55.276Z,93.66
2023-03-29T00:34:55.218Z,93.62
2023-03-29T00:35:55.257Z,93.76
2023-03-29T00:36:55.243Z,93.97
2023-03-29T00:37:55.203Z,94.38
2023-03-29T00:38:55.177Z,94.70
2023-03-29T00:39:55.189Z,94.59
2023-03-29T00:40:55.172Z,95.21
2023-03-29T00:41:55.155Z,95.01
2023-03-29T00:42:55.142Z,95.84
2023-03-29T00:43:55.124Z,95.32
2023-03-29T00:44:55.129Z,95.01
2023-03-29T00:45:55.116Z,94.90
2023-03-29T00:46:55.168Z,95.21
2023-03-29T00:47:55.165Z,94.38
2023-03-29T00:48:55.082Z,95.01
2023-03-29T00:49:55.223Z,94.70
2023-03-29T00:50:55.069Z,94.49
2023-03-29T00:51:55.055Z,94.49
2023-03-29T00:52:55.071Z,94.59
2023-03-29T00:53:55.022Z,93.76
2023-03-29T00:54:55.139Z,94.18
2023-03-29T00:55:55.003Z,93.97
2023-03-29T00:56:55.085Z,93.87
2023-03-29T00:57:54.977Z,94.80
2023-03-29T00:58:54.965Z,95.01
2023-03-29T00:59:54.955Z,94.70
2023-03-29T01:00:54.960Z,94.80
2023-03-29T01:01:55.336Z,94.49
2023-03-29T01:02:55.228Z,95.01
2023-03-29T01:03:55.062Z,94.28
2023-03-29T01:04:54.928Z,94.70
2023-03-29T01:05:54.940Z,94.49
2023-03-29T01:06:54.916Z,93.76
2023-03-29T01:07:55.149Z,94.28
2023-03-29T01:08:54.876Z,94.18
2023-03-29T01:09:54.869Z,94.80
2023-03-29T01:10:54.901Z,94.59
2023-03-29T01:11:54.836Z,94.59
2023-03-29T01:12:55.015Z,93.97
2023-03-29T01:13:54.821Z,94.38
2023-03-29T01:14:54.821Z,93.87
2023-03-29T01:15:54.892Z,94.07
2023-03-29T01:16:54.817Z,94.07
2023-03-29T01:17:55.030Z,93.87
2023-03-29T01:18:54.771Z,93.87
2023-03-29T01:19:54.757Z,93.87
2023-03-29T01:20:54.761Z,94.07
2023-03-29T01:21:54.737Z,94.38
2023-03-29T01:22:55.297Z,93.87
2023-03-29T01:23:54.728Z,93.66
2023-03-29T01:24:54.714Z,93.55
2023-03-29T01:25:54.711Z,93.87
2023-03-29T01:26:54.691Z,93.45
2023-03-29T01:27:54.701Z,94.18
2023-03-29T01:28:54.685Z,93.87
2023-03-29T01:29:54.670Z,94.38
2023-03-29T01:30:54.658Z,94.07
2023-03-29T01:31:54.715Z,93.24
2023-03-29T01:32:54.690Z,93.76
2023-03-29T01:33:54.619Z,93.55
2023-03-29T01:34:54.616Z,93.76
2023-03-29T01:35:54.661Z,93.35
2023-03-29T01:36:54.605Z,93.14
2023-03-29T01:37:54.599Z,93.24
2023-03-29T01:38:54.576Z,93.66
2023-03-29T01:39:54.565Z,93.76
2023-03-29T01:40:54.590Z,94.28
2023-03-29T01:41:54.549Z,94.49
2023-03-29T01:42:54.545Z,94.28
2023-03-29T01:43:54.568Z,94.49
2023-03-29T01:44:54.542Z,94.18
2023-03-29T01:45:54.541Z,94.28
2023-03-29T01:46:54.491Z,94.80
2023-03-29T01:47:54.585Z,94.59
2023-03-29T01:48:54.474Z,94.80
2023-03-29T01:49:54.448Z,94.90
2023-03-29T01:50:54.474Z,94.90
2023-03-29T01:51:54.450Z,94.80
2023-03-29T01:52:54.446Z,94.80
2023-03-29T01:53:54.422Z,95.32
2023-03-29T01:54:54.420Z,95.11
2023-03-29T01:55:54.410Z,95.32
2023-03-29T01:56:54.447Z,95.21
2023-03-29T01:57:54.426Z,95.42
2023-03-29T01:58:54.397Z,95.53
2023-03-29T01:59:54.368Z,95.53
2023-03-29T02:00:54.383Z,95.73
2023-03-29T02:01:54.423Z,96.30
2023-03-29T02:02:54.412Z,95.21
2023-03-29T02:03:54.603Z,95.53
2023-03-29T02:04:54.317Z,95.53
2023-03-29T02:05:54.294Z,95.78
2023-03-29T02:06:54.291Z,96.30
2023-03-29T02:07:54.276Z,96.20
2023-03-29T02:08:54.320Z,96.30
2023-03-29T02:09:54.275Z,96.30
2023-03-29T02:10:54.242Z,96.20
2023-03-29T02:11:54.239Z,96.20
2023-03-29T02:12:54.242Z,95.89
2023-03-29T02:13:54.242Z,96.30
2023-03-29T02:14:54.286Z,96.20
2023-03-29T02:15:54.217Z,95.99
2023-03-29T02:16:54.201Z,96.09
2023-03-29T02:17:54.204Z,95.89
2023-03-29T02:18:54.186Z,96.09
2023-03-29T02:19:54.162Z,95.47
2023-03-29T02:20:54.142Z,95.67
2023-03-29T02:21:54.139Z,95.99
2023-03-29T02:22:54.146Z,95.67
2023-03-29T02:23:54.122Z,95.89
2023-03-29T02:24:54.104Z,95.47
2023-03-29T02:25:54.121Z,95.67
2023-03-29T02:26:54.081Z,95.73
2023-03-29T02:27:54.128Z,95.84
2023-03-29T02:28:54.103Z,95.99
2023-03-29T02:29:54.083Z,95.57
2023-03-29T02:30:54.059Z,95.26
2023-03-29T02:31:54.071Z,95.89
2023-03-29T02:32:54.185Z,95.67
2023-03-29T02:33:54.017Z,95.67
2023-03-29T02:34:54.012Z,95.67
2023-03-29T02:35:54.020Z,96.30
2023-03-29T02:36:53.992Z,96.09
2023-03-29T02:37:53.999Z,95.99
2023-03-29T02:38:53.966Z,95.67
2023-03-29T02:39:53.977Z,95.63
2023-03-29T02:40:53.948Z,95.73
2023-03-29T02:41:53.932Z,95.84
2023-03-29T02:42:53.938Z,95.73
2023-03-29T02:43:53.929Z,95.94
2023-03-29T02:44:53.902Z,95.94
2023-03-29T02:45:53.987Z,95.73
2023-03-29T02:46:53.910Z,96.15
2023-03-29T02:47:53.940Z,95.84
2023-03-29T02:48:53.856Z,95.53
2023-03-29T02:49:53.885Z,95.42
2023-03-29T02:50:53.848Z,95.42
2023-03-29T02:51:53.842Z,95.53
2023-03-29T02:52:53.854Z,95.32
2023-03-29T02:53:53.813Z,95.21
2023-03-29T02:54:53.847Z,95.11
2023-03-29T02:55:53.805Z,95.11
2023-03-29T02:56:53.808Z,95.73
2023-03-29T02:57:53.803Z,96.04
2023-03-29T02:58:53.770Z,96.04
2023-03-29T02:59:53.781Z,95.84
2023-03-29T03:00:53.737Z,95.73
2023-03-29T03:01:53.945Z,95.63
2023-03-29T03:02:53.795Z,96.36
2023-03-29T03:03:53.808Z,96.36
2023-03-29T03:04:53.701Z,95.84
2023-03-29T03:05:53.699Z,95.63
2023-03-29T03:06:53.689Z,95.42
2023-03-29T03:07:53.700Z,95.84
2023-03-29T03:08:53.663Z,95.73
2023-03-29T03:09:53.665Z,95.53
2023-03-29T03:10:53.647Z,95.53
2023-03-29T03:11:53.650Z,95.73
2023-03-29T03:12:53.641Z,95.84
2023-03-29T03:13:53.622Z,95.53
2023-03-29T03:14:53.629Z,96.04
2023-03-29T03:15:53.628Z,95.94
2023-03-29T03:16:53.575Z,95.21
2023-03-29T03:17:53.658Z,95.84
2023-03-29T03:18:53.561Z,96.25
2023-03-29T03:19:53.585Z,95.94
2023-03-29T03:20:53.548Z,95.42
2023-03-29T03:21:53.535Z,95.32
2023-03-29T03:22:53.535Z,95.01
2023-03-29T03:23:53.533Z,95.11
2023-03-29T03:24:53.518Z,94.80
2023-03-29T03:25:53.532Z,94.90
2023-03-29T03:26:53.484Z,94.90
2023-03-29T03:27:53.578Z,95.01
2023-03-29T03:28:53.466Z,95.01
2023-03-29T03:29:53.462Z,94.59
2023-03-29T03:30:53.441Z,94.49
2023-03-29T03:31:54.267Z,94.59
2023-03-29T03:32:53.745Z,94.38
2023-03-29T03:33:53.416Z,94.28
2023-03-29T03:34:53.493Z,94.07
2023-03-29T03:35:53.433Z,94.07
2023-03-29T03:36:53.380Z,93.97
2023-03-29T03:37:53.364Z,93.93
2023-03-29T03:38:53.393Z,93.51
2023-03-29T03:39:53.348Z,93.82
2023-03-29T03:40:53.336Z,93.82
2023-03-29T03:41:53.327Z,93.82
2023-03-29T03:42:53.318Z,94.13
2023-03-29T03:43:53.325Z,93.97
2023-03-29T03:44:53.296Z,94.18
2023-03-29T03:45:53.567Z,94.07
2023-03-29T03:46:53.282Z,94.07
2023-03-29T03:47:53.375Z,93.62
2023-03-29T03:48:53.280Z,93.82
2023-03-29T03:49:53.254Z,93.62
2023-03-29T03:50:53.246Z,93.30
2023-03-29T03:51:53.220Z,93.51
2023-03-29T03:52:53.203Z,93.62
2023-03-29T03:53:53.225Z,93.41
2023-03-29T03:54:53.217Z,93.30
2023-03-29T03:55:53.188Z,93.62
2023-03-29T03:56:53.313Z,93.20
2023-03-29T03:57:53.168Z,93.30
2023-03-29T03:58:53.176Z,93.62
2023-03-29T03:59:53.142Z,93.10
2023-03-29T04:00:53.149Z,93.62
2023-03-29T04:01:53.119Z,93.82
2023-03-29T04:02:53.177Z,93.72
2023-03-29T04:03:53.149Z,93.30
2023-03-29T04:04:53.083Z,93.30
2023-03-29T04:05:53.100Z,93.93
2023-03-29T04:06:53.066Z,93.41
2023-03-29T04:07:53.056Z,93.20
2023-03-29T04:08:53.076Z,93.20
2023-03-29T04:09:53.097Z,92.99
2023-03-29T04:10:53.051Z,93.30
2023-03-29T04:11:53.024Z,93.51
2023-03-29T04:12:53.033Z,93.62
2023-03-29T04:13:53.025Z,93.51
2023-03-29T04:14:52.988Z,93.72
2023-03-29T04:15:53.007Z,93.10
2023-03-29T04:16:53.036Z,93.20
2023-03-29T04:17:53.058Z,92.88
2023-03-29T04:18:53.027Z,92.88
2023-03-29T04:19:53.012Z,92.88
2023-03-29T04:20:52.984Z,92.47
2023-03-29T04:21:52.927Z,92.99
2023-03-29T04:22:52.907Z,92.99
2023-03-29T04:23:52.902Z,93.30
2023-03-29T04:24:52.910Z,93.10
2023-03-29T04:25:52.897Z,93.20
2023-03-29T04:26:52.866Z,93.51
2023-03-29T04:27:52.856Z,93.30
2023-03-29T04:28:52.862Z,93.30
2023-03-29T04:29:52.791Z,93.51
2023-03-29T04:30:52.860Z,93.20
2023-03-29T04:31:52.980Z,93.62
2023-03-29T04:32:52.798Z,93.62
2023-03-29T04:33:52.819Z,93.72
2023-03-29T04:34:52.797Z,93.93
2023-03-29T04:35:52.831Z,93.82
2023-03-29T04:36:52.721Z,93.93
2023-03-29T04:37:52.715Z,93.30
2023-03-29T04:38:52.765Z,93.41
2023-03-29T04:39:52.745Z,93.30
2023-03-29T04:40:52.683Z,93.30
2023-03-29T04:41:52.681Z,92.88
2023-03-29T04:42:52.711Z,92.99
2023-03-29T04:43:52.684Z,93.41
2023-03-29T04:44:52.673Z,93.51
2023-03-29T04:45:52.633Z,93.20
2023-03-29T04:46:52.653Z,93.82
2023-03-29T04:47:52.634Z,93.62
2023-03-29T04:48:52.608Z,93.20
2023-03-29T04:49:52.704Z,92.99
2023-03-29T04:50:52.599Z,93.20
2023-03-29T04:51:52.570Z,93.20
2023-03-29T04:52:52.779Z,93.20
2023-03-29T04:53:52.559Z,93.20
2023-03-29T04:54:52.558Z,93.51
2023-03-29T04:55:52.614Z,93.10
2023-03-29T04:56:52.599Z,92.99
2023-03-29T04:57:52.527Z,93.20
2023-03-29T04:58:52.487Z,93.10
2023-03-29T04:59:52.532Z,93.20
2023-03-29T05:00:52.488Z,93.20
2023-03-29T05:01:52.547Z,92.88
2023-03-29T05:02:52.478Z,92.68
2023-03-29T05:03:52.550Z,93.20
2023-03-29T05:04:52.428Z,93.20
2023-03-29T05:05:52.440Z,92.99
2023-03-29T05:06:52.428Z,93.10
2023-03-29T05:07:52.437Z,92.88
2023-03-29T05:08:52.451Z,92.99
2023-03-29T05:09:52.393Z,92.88
2023-03-29T05:10:52.369Z,93.41
2023-03-29T05:11:52.404Z,93.20
2023-03-29T05:12:52.339Z,92.57
2023-03-29T05:13:53.259Z,92.84
2023-03-29T05:14:52.342Z,92.88
2023-03-29T05:15:52.346Z,92.63
2023-03-29T05:16:52.340Z,92.22
2023-03-29T05:17:52.358Z,92.01
2023-03-29T05:18:52.341Z,92.32
2023-03-29T05:19:52.277Z,92.01
2023-03-29T05:20:52.272Z,91.60
2023-03-29T05:21:52.265Z,92.01
2023-03-29T05:22:52.243Z,92.01
2023-03-29T05:23:52.284Z,91.39
2023-03-29T05:24:52.218Z,91.60
2023-03-29T05:25:52.231Z,91.39
2023-03-29T05:26:52.244Z,91.49
2023-03-29T05:27:52.205Z,92.01
2023-03-29T05:28:52.231Z,92.11
2023-03-29T05:29:52.172Z,91.80
2023-03-29T05:30:52.168Z,91.80
2023-03-29T05:31:52.328Z,91.28
2023-03-29T05:32:52.171Z,91.49
2023-03-29T05:33:52.165Z,91.18
2023-03-29T05:34:52.122Z,90.97
2023-03-29T05:35:52.151Z,90.93
2023-03-29T05:36:52.115Z,91.66
2023-03-29T05:37:52.101Z,91.24
2023-03-29T05:38:52.093Z,91.66
2023-03-29T05:39:52.092Z,91.24
2023-03-29T05:40:52.064Z,90.93
2023-03-29T05:41:52.064Z,90.93
2023-03-29T05:42:52.051Z,91.03
2023-03-29T05:43:52.119Z,91.14
2023-03-29T05:44:54.098Z,90.83
2023-03-29T05:45:52.043Z,91.55
2023-03-29T05:46:52.005Z,91.14
2023-03-29T05:47:52.017Z,90.93
2023-03-29T05:48:52.008Z,90.93
2023-03-29T05:49:51.974Z,91.03
2023-03-29T05:50:51.951Z,91.35
2023-03-29T05:51:51.991Z,91.14
2023-03-29T05:52:51.938Z,91.24
2023-03-29T05:53:51.959Z,91.76
2023-03-29T05:54:51.922Z,91.45
2023-03-29T05:55:52.008Z,91.66
2023-03-29T05:56:51.979Z,90.72
2023-03-29T05:57:51.899Z,90.89
2023-03-29T05:58:53.731Z,91.10
2023-03-29T05:59:51.884Z,90.89
2023-03-29T06:00:51.868Z,90.69
2023-03-29T06:01:51.947Z,90.48
2023-03-29T06:02:51.930Z,91.31
2023-03-29T06:03:51.997Z,90.69
2023-03-29T06:04:51.944Z,91.00
2023-03-29T06:05:51.826Z,90.89
2023-03-29T06:06:51.822Z,90.79
2023-03-29T06:07:51.792Z,90.17
2023-03-29T06:08:51.851Z,90.06
2023-03-29T06:09:51.780Z,90.27
2023-03-29T06:10:51.761Z,90.48
2023-03-29T06:11:51.954Z,91.00
2023-03-29T06:12:51.760Z,90.89
2023-03-29T06:13:51.892Z,90.79
2023-03-29T06:14:51.752Z,90.79
2023-03-29T06:15:51.737Z,91.31
2023-03-29T06:16:51.728Z,90.79
2023-03-29T06:17:51.747Z,90.89
2023-03-29T06:18:51.687Z,91.00
2023-03-29T06:19:51.688Z,91.10
2023-03-29T06:20:51.664Z,90.37
2023-03-29T06:21:51.671Z,90.79
2023-03-29T06:22:51.637Z,90.58
2023-03-29T06:23:51.647Z,91.10
2023-03-29T06:24:51.633Z,90.89
2023-03-29T06:25:51.631Z,91.62
2023-03-29T06:26:51.604Z,91.41
2023-03-29T06:27:51.581Z,91.37
2023-03-29T06:28:52.426Z,91.27
2023-03-29T06:29:51.576Z,91.06
2023-03-29T06:30:51.587Z,90.54
2023-03-29T06:31:51.848Z,90.64
2023-03-29T06:32:51.570Z,90.44
2023-03-29T06:33:51.532Z,91.27
2023-03-29T06:34:51.556Z,90.02
2023-03-29T06:35:51.577Z,90.23
2023-03-29T06:36:51.492Z,89.29
2023-03-29T06:37:51.479Z,89.29
2023-03-29T06:38:51.475Z,89.77
2023-03-29T06:39:53.195Z,89.98
2023-03-29T06:40:51.483Z,88.73
2023-03-29T06:41:51.445Z,88.63
2023-03-29T06:42:51.432Z,88.53
2023-03-29T06:43:51.417Z,89.04
2023-03-29T06:44:51.429Z,89.11
2023-03-29T06:45:51.408Z,87.97
2023-03-29T06:46:51.514Z,87.97
2023-03-29T06:47:51.678Z,87.45
2023-03-29T06:48:51.376Z,86.62
2023-03-29T06:49:51.358Z,86.62
2023-03-29T06:50:51.362Z,86.62
2023-03-29T06:51:51.366Z,86.52
2023-03-29T06:52:51.347Z,87.04
2023-03-29T06:53:51.331Z,87.04
2023-03-29T06:54:51.644Z,86.79
2023-03-29T06:55:51.312Z,87.30
2023-03-29T06:56:51.357Z,86.17
2023-03-29T06:57:51.330Z,86.47
2023-03-29T06:58:51.275Z,86.79
2023-03-29T06:59:51.263Z,86.58
2023-03-29T07:00:51.499Z,86.47
2023-03-29T07:01:51.246Z,86.89
2023-03-29T07:02:51.285Z,86.54
2023-03-29T07:03:51.230Z,86.07
2023-03-29T07:04:51.264Z,86.17
2023-03-29T07:05:51.329Z,86.27
2023-03-29T07:06:51.210Z,85.65
2023-03-29T07:07:51.186Z,85.86
2023-03-29T07:08:51.174Z,85.86
2023-03-29T07:09:51.177Z,86.23
2023-03-29T07:10:51.149Z,85.92
2023-03-29T07:11:51.140Z,86.54
2023-03-29T07:12:51.127Z,85.19
2023-03-29T07:13:51.116Z,85.50
2023-03-29T07:14:51.127Z,85.40
2023-03-29T07:15:51.139Z,85.30
2023-03-29T07:16:51.085Z,85.68
2023-03-29T07:17:51.286Z,85.05
2023-03-29T07:18:51.060Z,85.36
2023-03-29T07:19:51.069Z,83.91
2023-03-29T07:20:51.042Z,84.53
2023-03-29T07:21:51.050Z,84.95
2023-03-29T07:22:51.099Z,84.43
2023-03-29T07:23:51.020Z,84.12
2023-03-29T07:24:51.041Z,84.22
2023-03-29T07:25:50.984Z,84.84
2023-03-29T07:27:03.101Z,84.43
2023-03-29T07:27:50.973Z,83.81
2023-03-29T07:28:51.026Z,84.01
2023-03-29T07:29:50.966Z,84.12
2023-03-29T07:30:50.992Z,84.53
2023-03-29T07:31:50.928Z,84.95
2023-03-29T07:32:51.037Z,85.57
2023-03-29T07:33:50.988Z,83.61
2023-03-29T07:34:51.626Z,83.91
2023-03-29T07:35:50.982Z,84.01
2023-03-29T07:36:50.974Z,84.29
2023-03-29T07:37:50.868Z,84.60
2023-03-29T07:38:50.949Z,82.95
2023-03-29T07:39:50.899Z,82.98
2023-03-29T07:40:50.838Z,83.91
2023-03-29T07:41:50.873Z,83.71
2023-03-29T07:42:50.825Z,84.12
2023-03-29T07:43:50.801Z,84.43
2023-03-29T07:44:50.817Z,83.50
2023-03-29T07:45:50.806Z,83.19
2023-03-29T07:46:50.775Z,83.77
2023-03-29T07:47:50.788Z,84.19
2023-03-29T07:48:50.774Z,83.05
2023-03-29T07:49:50.821Z,82.74
2023-03-29T07:50:50.787Z,83.32
2023-03-29T07:51:50.730Z,82.80
2023-03-29T07:52:50.719Z,83.11
2023-03-29T07:53:50.708Z,83.11
2023-03-29T07:54:50.709Z,82.56
2023-03-29T07:55:50.689Z,82.76
2023-03-29T07:56:50.731Z,81.80
2023-03-29T07:57:50.704Z,82.93
2023-03-29T07:58:50.648Z,82.21
2023-03-29T07:59:50.767Z,82.10
2023-03-29T08:00:50.810Z,80.66
2023-03-29T08:01:50.615Z,80.97
2023-03-29T08:02:50.641Z,81.66
2023-03-29T08:03:50.664Z,80.28
2023-03-29T08:04:50.677Z,80.76
2023-03-29T08:05:50.623Z,79.25
2023-03-29T08:06:50.623Z,79.69
2023-03-29T08:07:50.593Z,80.25
2023-03-29T08:08:50.546Z,81.35
2023-03-29T08:09:50.552Z,80.46
2023-03-29T08:10:50.568Z,81.38
2023-03-29T08:11:50.522Z,80.73
2023-03-29T08:12:50.511Z,80.32
2023-03-29T08:13:50.487Z,80.42
2023-03-29T08:14:50.561Z,80.69
2023-03-29T08:15:50.469Z,79.97
2023-03-29T08:16:50.528Z,79.97
2023-03-29T08:17:50.484Z,80.44
2023-03-29T08:18:50.634Z,79.66
2023-03-29T08:19:50.931Z,80.28
2023-03-29T08:20:50.431Z,81.62
2023-03-29T08:21:50.482Z,81.10
2023-03-29T08:22:50.412Z,80.58
2023-03-29T08:23:50.439Z,80.90
2023-03-29T08:24:50.428Z,80.79
2023-03-29T08:25:50.373Z,81.27
2023-03-29T08:26:50.472Z,80.14
2023-03-29T08:27:50.435Z,81.10
2023-03-29T08:28:50.360Z,80.58
2023-03-29T08:29:50.375Z,81.00
2023-03-29T08:30:50.394Z,80.69
2023-03-29T08:31:50.377Z,80.38
2023-03-29T08:32:52.948Z,81.10
2023-03-29T08:33:50.307Z,80.44
2023-03-29T08:34:50.346Z,80.14
2023-03-29T08:35:50.290Z,80.24
2023-03-29T08:36:50.278Z,79.38
2023-03-29T08:37:50.332Z,79.07
2023-03-29T08:38:50.249Z,78.45
2023-03-29T08:39:50.247Z,78.86
2023-03-29T08:40:50.457Z,79.44
2023-03-29T08:41:50.265Z,78.52
2023-03-29T08:42:50.319Z,78.00
2023-03-29T08:43:50.216Z,77.90
2023-03-29T08:44:50.265Z,77.48
2023-03-29T08:45:51.150Z,78.72
2023-03-29T08:46:50.293Z,79.65
2023-03-29T08:47:50.172Z,78.55
2023-03-29T08:48:50.151Z,78.66
2023-03-29T08:49:50.232Z,79.34
2023-03-29T08:50:50.143Z,78.79
2023-03-29T08:51:50.136Z,77.66
2023-03-29T08:52:50.172Z,79.61
2023-03-29T08:53:50.211Z,78.28
2023-03-29T08:54:50.085Z,78.83
2023-03-29T08:55:50.129Z,79.69
2023-03-29T08:56:50.715Z,80.37
2023-03-29T08:57:50.062Z,79.27
2023-03-29T08:58:50.068Z,79.90
2023-03-29T08:59:50.064Z,81.23
2023-03-29T09:00:50.039Z,81.13
2023-03-29T09:01:50.040Z,81.75
2023-03-29T09:02:50.083Z,82.26
2023-03-29T09:03:50.326Z,82.78
2023-03-29T09:04:50.034Z,82.37
2023-03-29T09:05:49.998Z,82.26
2023-03-29T09:06:50.000Z,81.09
2023-03-29T09:07:50.071Z,80.79
2023-03-29T09:08:49.958Z,80.58
2023-03-29T09:09:50.030Z,80.58
2023-03-29T09:10:49.973Z,80.65
2023-03-29T09:11:49.947Z,79.93
2023-03-29T09:12:49.948Z,79.79
2023-03-29T09:13:49.926Z,80.36
2023-03-29T09:14:49.928Z,78.17
2023-03-29T09:15:49.918Z,77.24
2023-03-29T09:16:49.891Z,77.31
2023-03-29T09:17:49.976Z,77.92
2023-03-29T09:18:49.862Z,77.27
2023-03-29T09:19:49.847Z,75.70
2023-03-29T09:20:49.842Z,75.04
2023-03-29T09:21:49.818Z,74.40
2023-03-29T09:22:49.799Z,73.88
2023-03-29T09:23:49.801Z,75.01
2023-03-29T09:24:49.790Z,72.24
2023-03-29T09:25:53.495Z,72.96
2023-03-29T09:26:49.756Z,73.27
2023-03-29T09:27:49.978Z,73.74
2023-03-29T09:28:49.739Z,72.61
2023-03-29T09:29:49.728Z,72.72
2023-03-29T09:30:49.743Z,73.19
2023-03-29T09:31:49.809Z,71.42
2023-03-29T09:32:49.724Z,73.40
2023-03-29T09:33:49.712Z,75.80
2023-03-29T09:34:49.864Z,74.26
2023-03-29T09:35:49.689Z,75.32
2023-03-29T09:36:49.704Z,75.83
2023-03-29T09:37:49.638Z,75.32
2023-03-29T09:38:49.658Z,76.18
2023-03-29T09:39:49.611Z,76.90
2023-03-29T09:40:49.660Z,76.97
2023-03-29T09:41:49.593Z,76.07
2023-03-29T09:42:49.610Z,76.76
2023-03-29T09:43:49.611Z,76.00
2023-03-29T09:44:49.577Z,75.80
2023-03-29T09:45:49.631Z,74.46
2023-03-29T09:46:49.547Z,76.31
2023-03-29T09:47:49.634Z,75.12
2023-03-29T09:48:49.538Z,75.63
2023-03-29T09:49:49.601Z,75.12
2023-03-29T09:50:49.515Z,76.65
2023-03-29T09:51:49.564Z,75.93
2023-03-29T09:52:49.487Z,75.42
2023-03-29T09:53:49.590Z,76.04
2023-03-29T09:54:49.493Z,75.08
2023-03-29T09:55:50.341Z,74.67
2023-03-29T09:56:49.603Z,73.85
2023-03-29T09:57:49.472Z,74.32
2023-03-29T09:58:49.480Z,73.61
2023-03-29T09:59:49.493Z,74.32
2023-03-29T10:00:49.460Z,74.22
2023-03-29T10:01:49.413Z,74.12
2023-03-29T10:02:49.462Z,74.40
2023-03-29T10:03:49.381Z,73.06
2023-03-29T10:04:49.360Z,73.47
2023-03-29T10:05:49.362Z,74.29
2023-03-29T10:06:49.422Z,73.78
2023-03-29T10:07:49.368Z,73.19
2023-03-29T10:08:49.329Z,73.61
2023-03-29T10:09:49.310Z,74.22
2023-03-29T10:10:49.332Z,74.22
2023-03-29T10:11:49.321Z,73.91
2023-03-29T10:12:49.286Z,75.15
2023-03-29T10:13:49.314Z,73.91
2023-03-29T10:14:51.516Z,74.53
2023-03-29T10:15:49.785Z,74.43
2023-03-29T10:16:49.321Z,74.02
2023-03-29T10:17:49.290Z,74.94
2023-03-29T10:18:49.238Z,75.76
2023-03-29T10:19:49.208Z,74.94
2023-03-29T10:20:49.260Z,74.05
2023-03-29T10:21:49.255Z,74.91
2023-03-29T10:22:49.184Z,74.50
2023-03-29T10:23:49.159Z,75.90
2023-03-29T10:24:49.168Z,75.59
2023-03-29T10:25:49.313Z,74.46
2023-03-29T10:26:49.129Z,75.25
2023-03-29T10:27:49.149Z,74.60
2023-03-29T10:28:49.109Z,74.46
2023-03-29T10:29:49.095Z,72.07
2023-03-29T10:30:49.117Z,72.75
2023-03-29T10:31:49.144Z,72.68
2023-03-29T10:32:49.168Z,72.61
2023-03-29T10:33:49.068Z,72.82
2023-03-29T10:34:49.068Z,73.64
2023-03-29T10:35:49.141Z,72.20
2023-03-29T10:36:49.033Z,72.58
2023-03-29T10:37:49.039Z,74.02
2023-03-29T10:38:49.185Z,71.76
2023-03-29T10:39:48.993Z,73.19
2023-03-29T10:40:49.020Z,72.24
2023-03-29T10:41:48.979Z,71.04
2023-03-29T10:42:48.980Z,72.48
2023-03-29T10:43:48.965Z,72.48
2023-03-29T10:44:48.942Z,73.06
2023-03-29T10:45:49.032Z,72.27
2023-03-29T10:46:48.928Z,73.19
2023-03-29T10:47:48.928Z,73.78
2023-03-29T10:48:48.932Z,72.89
2023-03-29T10:49:50.380Z,72.78
2023-03-29T10:50:48.896Z,72.82
2023-03-29T10:51:48.873Z,73.81
2023-03-29T10:52:48.856Z,73.10
2023-03-29T10:53:48.857Z,74.29
2023-03-29T10:54:48.857Z,72.68
2023-03-29T10:55:48.852Z,73.36
2023-03-29T10:56:50.760Z,72.44
2023-03-29T10:57:48.857Z,73.98
2023-03-29T10:58:48.795Z,72.17
2023-03-29T10:59:48.819Z,72.82
2023-03-29T11:00:48.831Z,74.26
2023-03-29T11:01:48.811Z,73.44
2023-03-29T11:02:48.864Z,74.15
2023-03-29T11:03:48.853Z,73.64
2023-03-29T11:04:48.766Z,74.36
2023-03-29T11:05:48.825Z,73.64
2023-03-29T11:06:48.721Z,73.54
2023-03-29T11:07:48.818Z,74.15
2023-03-29T11:08:48.703Z,73.40
2023-03-29T11:09:48.693Z,73.40
2023-03-29T11:10:48.710Z,73.40
2023-03-29T11:11:48.669Z,72.75
2023-03-29T11:12:48.639Z,72.65
2023-03-29T11:13:48.650Z,72.24
2023-03-29T11:14:48.622Z,71.62
2023-03-29T11:15:48.738Z,72.14
2023-03-29T11:16:48.616Z,72.24
2023-03-29T11:17:48.685Z,72.75
2023-03-29T11:18:48.596Z,73.78
2023-03-29T11:19:48.583Z,72.89
2023-03-29T11:20:48.571Z,72.78
2023-03-29T11:21:48.570Z,73.02
2023-03-29T11:22:48.579Z,74.29
2023-03-29T11:23:48.529Z,75.32
2023-03-29T11:24:48.515Z,75.11
2023-03-29T11:25:48.522Z,74.80
2023-03-29T11:26:48.520Z,75.73
2023-03-29T11:27:48.497Z,74.29
2023-03-29T11:28:48.533Z,74.70
2023-03-29T11:29:48.470Z,74.70
2023-03-29T11:30:48.536Z,74.29
2023-03-29T11:31:48.509Z,74.87
2023-03-29T11:32:48.519Z,74.73
2023-03-29T11:33:48.440Z,73.57
2023-03-29T11:34:48.430Z,73.27
2023-03-29T11:35:48.433Z,72.31
2023-03-29T11:36:48.407Z,73.71
2023-03-29T11:37:48.403Z,70.94
2023-03-29T11:38:48.372Z,70.29
2023-03-29T11:39:48.381Z,69.45
2023-03-29T11:40:48.446Z,70.26
2023-03-29T11:41:48.362Z,70.88
2023-03-29T11:42:48.339Z,70.67
2023-03-29T11:43:48.483Z,69.72
2023-03-29T11:44:48.348Z,69.31
2023-03-29T11:45:48.347Z,70.13
2023-03-29T11:46:48.386Z,70.16
2023-03-29T11:47:48.373Z,69.96
2023-03-29T11:48:49.222Z,70.40
2023-03-29T11:49:48.262Z,72.04
2023-03-29T11:50:48.289Z,71.42
2023-03-29T11:51:48.276Z,71.01
2023-03-29T11:52:48.224Z,70.91
2023-03-29T11:53:48.338Z,70.71
2023-03-29T11:54:48.208Z,72.00
2023-03-29T11:55:48.201Z,71.46
2023-03-29T11:56:48.474Z,70.40
2023-03-29T11:57:48.176Z,69.76
2023-03-29T11:58:48.158Z,67.89
2023-03-29T11:59:48.187Z,67.76
2023-03-29T12:00:48.183Z,66.94
2023-03-29T12:01:48.169Z,67.52
2023-03-29T12:02:48.628Z,66.60
2023-03-29T12:03:48.302Z,66.70
2023-03-29T12:04:48.142Z,67.21
2023-03-29T12:05:48.120Z,66.30
2023-03-29T12:06:48.123Z,66.80
2023-03-29T12:07:48.076Z,67.72
2023-03-29T12:08:48.076Z,66.70
2023-03-29T12:09:48.061Z,66.91
2023-03-29T12:10:48.038Z,67.11
2023-03-29T12:11:48.226Z,68.13
2023-03-29T12:12:48.011Z,67.76
2023-03-29T12:13:48.014Z,66.44
2023-03-29T12:14:47.994Z,64.70
2023-03-29T12:15:47.990Z,66.74
2023-03-29T12:16:48.565Z,65.65
2023-03-29T12:17:48.038Z,66.97
2023-03-29T12:18:47.943Z,66.94
2023-03-29T12:19:47.947Z,65.04
2023-03-29T12:20:47.924Z,66.36
2023-03-29T12:21:48.368Z,65.95
2023-03-29T12:22:47.911Z,66.77
2023-03-29T12:23:47.905Z,66.77
2023-03-29T12:24:47.918Z,66.30
2023-03-29T12:25:47.880Z,65.78
2023-03-29T12:26:47.880Z,68.13
2023-03-29T12:27:47.856Z,67.38
2023-03-29T12:28:47.843Z,67.22
2023-03-29T12:29:47.844Z,64.67
2023-03-29T12:30:47.840Z,65.97
2023-03-29T12:31:47.983Z,65.59
2023-03-29T12:32:47.864Z,66.00
2023-03-29T12:33:47.816Z,65.89
2023-03-29T12:34:47.798Z,66.78
2023-03-29T12:35:47.938Z,63.94
2023-03-29T12:36:47.779Z,63.13
2023-03-29T12:37:47.780Z,65.16
2023-03-29T12:38:47.747Z,64.22
2023-03-29T12:39:47.817Z,63.00
2023-03-29T12:40:47.725Z,61.47
2023-03-29T12:41:47.735Z,61.91
2023-03-29T12:42:47.715Z,64.07
2023-03-29T12:43:47.701Z,64.48
2023-03-29T12:44:47.763Z,63.33
2023-03-29T12:45:47.742Z,63.77
2023-03-29T12:46:47.699Z,63.59
2023-03-29T12:47:47.721Z,64.41
2023-03-29T12:48:47.646Z,63.62
2023-03-29T12:49:47.642Z,65.33
2023-03-29T12:50:47.688Z,64.44
2023-03-29T12:51:47.646Z,66.10
2023-03-29T12:52:47.652Z,65.19